sensor_id;sensor_type;location;lat;lon;timestamp;P1;durP1;ratioP1;P2;durP2;ratioP2
6173;SDS011;3120;48.796;9.796;2023-06-26T00:01:41;13.95;;;9.40;;
6173;SDS011;3120;48.796;9.796;2023-06-26T00:04:07;12.40;;;8.70;;
6173;SDS011;3120;48.796;9.796;2023-06-26T00:06:39;17.98;;;9.63;;
6173;SDS011;3120;48.796;9.796;2023-06-26T00:09:05;16.75;;;9.88;;
6173;SDS011;3120;48.796;9.796;2023-06-26T00:11:30;14.35;;;9.43;;
6173;SDS011;3120;48.796;9.796;2023-06-26T00:13:58;13.70;;;9.35;;
6173;SDS011;3120;48.796;9.796;2023-06-26T00:16:27;16.45;;;9.93;;
6173;SDS011;3120;48.796;9.796;2023-06-26T00:18:53;13.73;;;9.65;;
6173;SDS011;3120;48.796;9.796;2023-06-26T00:21:19;12.27;;;9.13;;
6173;SDS011;3120;48.796;9.796;2023-06-26T00:23:45;14.13;;;9.65;;
6173;SDS011;3120;48.796;9.796;2023-06-26T00:26:11;16.33;;;10.05;;
6173;SDS011;3120;48.796;9.796;2023-06-26T00:28:37;13.32;;;9.43;;
6173;SDS011;3120;48.796;9.796;2023-06-26T00:31:02;17.35;;;9.98;;
6173;SDS011;3120;48.796;9.796;2023-06-26T00:33:28;15.48;;;10.02;;
6173;SDS011;3120;48.796;9.796;2023-06-26T00:35:54;15.93;;;10.40;;
6173;SDS011;3120;48.796;9.796;2023-06-26T00:38:19;16.23;;;10.27;;
6173;SDS011;3120;48.796;9.796;2023-06-26T00:40:46;24.48;;;10.80;;
6173;SDS011;3120;48.796;9.796;2023-06-26T00:43:11;18.67;;;11.55;;
6173;SDS011;3120;48.796;9.796;2023-06-26T00:45:37;16.88;;;10.68;;
6173;SDS011;3120;48.796;9.796;2023-06-26T00:48:02;16.33;;;11.45;;
6173;SDS011;3120;48.796;9.796;2023-06-26T00:50:28;18.23;;;11.02;;
6173;SDS011;3120;48.796;9.796;2023-06-26T00:52:54;16.17;;;10.48;;
6173;SDS011;3120;48.796;9.796;2023-06-26T00:55:25;16.30;;;10.05;;
6173;SDS011;3120;48.796;9.796;2023-06-26T00:58:03;16.48;;;10.88;;
6173;SDS011;3120;48.796;9.796;2023-06-26T01:00:29;15.85;;;9.50;;
6173;SDS011;3120;48.796;9.796;2023-06-26T01:02:55;16.42;;;10.13;;
6173;SDS011;3120;48.796;9.796;2023-06-26T01:05:28;15.60;;;10.20;;
6173;SDS011;3120;48.796;9.796;2023-06-26T01:07:55;21.98;;;10.43;;
6173;SDS011;3120;48.796;9.796;2023-06-26T01:13:34;13.15;;;9.57;;
6173;SDS011;3120;48.796;9.796;2023-06-26T01:31:05;18.08;;;10.18;;
6173;SDS011;3120;48.796;9.796;2023-06-26T01:37:36;25.40;;;10.00;;
6173;SDS011;3120;48.796;9.796;2023-06-26T01:40:48;18.38;;;10.25;;
6173;SDS011;3120;48.796;9.796;2023-06-26T01:47:06;18.65;;;10.70;;
6173;SDS011;3120;48.796;9.796;2023-06-26T01:50:29;14.82;;;9.38;;
6173;SDS011;3120;48.796;9.796;2023-06-26T01:53:50;16.75;;;10.65;;
6173;SDS011;3120;48.796;9.796;2023-06-26T01:56:50;16.05;;;10.13;;
6173;SDS011;3120;48.796;9.796;2023-06-26T01:59:55;17.80;;;10.05;;
6173;SDS011;3120;48.796;9.796;2023-06-26T02:02:50;16.90;;;10.80;;
6173;SDS011;3120;48.796;9.796;2023-06-26T02:05:39;19.08;;;9.90;;
6173;SDS011;3120;48.796;9.796;2023-06-26T02:08:20;13.17;;;10.13;;
6173;SDS011;3120;48.796;9.796;2023-06-26T02:14:32;18.15;;;10.45;;
6173;SDS011;3120;48.796;9.796;2023-06-26T02:17:36;16.35;;;10.48;;
6173;SDS011;3120;48.796;9.796;2023-06-26T02:20:29;15.98;;;10.90;;
6173;SDS011;3120;48.796;9.796;2023-06-26T02:23:18;14.55;;;9.95;;
6173;SDS011;3120;48.796;9.796;2023-06-26T02:25:57;14.25;;;10.18;;
6173;SDS011;3120;48.796;9.796;2023-06-26T02:35:01;18.55;;;10.25;;
6173;SDS011;3120;48.796;9.796;2023-06-26T02:37:29;17.42;;;10.43;;
6173;SDS011;3120;48.796;9.796;2023-06-26T02:40:02;14.43;;;10.10;;
6173;SDS011;3120;48.796;9.796;2023-06-26T02:42:39;16.42;;;10.23;;
6173;SDS011;3120;48.796;9.796;2023-06-26T02:45:19;16.95;;;10.32;;
6173;SDS011;3120;48.796;9.796;2023-06-26T02:51:30;17.35;;;11.07;;
6173;SDS011;3120;48.796;9.796;2023-06-26T03:00:11;15.85;;;10.60;;
6173;SDS011;3120;48.796;9.796;2023-06-26T03:02:44;16.25;;;10.13;;
6173;SDS011;3120;48.796;9.796;2023-06-26T03:05:10;17.95;;;11.25;;
6173;SDS011;3120;48.796;9.796;2023-06-26T03:07:38;15.15;;;10.60;;
6173;SDS011;3120;48.796;9.796;2023-06-26T03:10:22;15.30;;;10.50;;
6173;SDS011;3120;48.796;9.796;2023-06-26T03:12:53;16.67;;;10.35;;
6173;SDS011;3120;48.796;9.796;2023-06-26T03:15:18;16.42;;;10.45;;
6173;SDS011;3120;48.796;9.796;2023-06-26T03:17:47;16.33;;;10.90;;
6173;SDS011;3120;48.796;9.796;2023-06-26T03:20:13;13.15;;;9.32;;
6173;SDS011;3120;48.796;9.796;2023-06-26T03:22:43;15.23;;;10.10;;
6173;SDS011;3120;48.796;9.796;2023-06-26T03:25:11;15.82;;;10.30;;
6173;SDS011;3120;48.796;9.796;2023-06-26T03:27:46;13.65;;;9.68;;
6173;SDS011;3120;48.796;9.796;2023-06-26T03:30:17;14.57;;;10.38;;
6173;SDS011;3120;48.796;9.796;2023-06-26T03:32:46;13.80;;;10.18;;
6173;SDS011;3120;48.796;9.796;2023-06-26T03:35:18;16.95;;;10.77;;
6173;SDS011;3120;48.796;9.796;2023-06-26T03:37:54;15.10;;;10.43;;
6173;SDS011;3120;48.796;9.796;2023-06-26T03:40:58;20.48;;;11.25;;
6173;SDS011;3120;48.796;9.796;2023-06-26T03:43:39;16.02;;;10.80;;
6173;SDS011;3120;48.796;9.796;2023-06-26T03:46:10;15.85;;;10.38;;
6173;SDS011;3120;48.796;9.796;2023-06-26T03:48:51;17.45;;;10.98;;
6173;SDS011;3120;48.796;9.796;2023-06-26T03:51:52;16.38;;;10.57;;
6173;SDS011;3120;48.796;9.796;2023-06-26T03:54:23;18.00;;;10.73;;
6173;SDS011;3120;48.796;9.796;2023-06-26T03:56:59;21.75;;;11.85;;
6173;SDS011;3120;48.796;9.796;2023-06-26T03:59:27;17.27;;;10.85;;
6173;SDS011;3120;48.796;9.796;2023-06-26T04:01:58;17.50;;;10.95;;
6173;SDS011;3120;48.796;9.796;2023-06-26T04:07:38;14.80;;;10.98;;
6173;SDS011;3120;48.796;9.796;2023-06-26T04:10:17;16.90;;;10.95;;
6173;SDS011;3120;48.796;9.796;2023-06-26T04:12:55;17.63;;;11.38;;
6173;SDS011;3120;48.796;9.796;2023-06-26T04:15:27;13.43;;;9.95;;
6173;SDS011;3120;48.796;9.796;2023-06-26T04:18:41;14.50;;;10.48;;
6173;SDS011;3120;48.796;9.796;2023-06-26T04:21:40;14.15;;;10.25;;
6173;SDS011;3120;48.796;9.796;2023-06-26T04:24:09;16.80;;;11.65;;
6173;SDS011;3120;48.796;9.796;2023-06-26T04:26:49;15.73;;;10.18;;
6173;SDS011;3120;48.796;9.796;2023-06-26T04:32:46;20.67;;;11.30;;
6173;SDS011;3120;48.796;9.796;2023-06-26T04:35:30;21.23;;;10.95;;
6173;SDS011;3120;48.796;9.796;2023-06-26T04:38:15;18.75;;;11.68;;
6173;SDS011;3120;48.796;9.796;2023-06-26T04:43:54;16.58;;;11.00;;
6173;SDS011;3120;48.796;9.796;2023-06-26T04:46:22;21.08;;;11.90;;
6173;SDS011;3120;48.796;9.796;2023-06-26T04:48:52;15.20;;;10.50;;
6173;SDS011;3120;48.796;9.796;2023-06-26T04:54:11;14.70;;;10.68;;
6173;SDS011;3120;48.796;9.796;2023-06-26T04:56:40;20.50;;;11.65;;
6173;SDS011;3120;48.796;9.796;2023-06-26T04:59:06;18.60;;;12.10;;
6173;SDS011;3120;48.796;9.796;2023-06-26T05:01:45;16.42;;;11.40;;
6173;SDS011;3120;48.796;9.796;2023-06-26T05:04:23;14.45;;;10.77;;
6173;SDS011;3120;48.796;9.796;2023-06-26T05:07:04;15.52;;;10.70;;
6173;SDS011;3120;48.796;9.796;2023-06-26T05:09:58;20.75;;;11.75;;
6173;SDS011;3120;48.796;9.796;2023-06-26T05:12:30;18.80;;;12.20;;
6173;SDS011;3120;48.796;9.796;2023-06-26T05:15:07;19.42;;;12.52;;
6173;SDS011;3120;48.796;9.796;2023-06-26T05:17:47;17.17;;;11.38;;
6173;SDS011;3120;48.796;9.796;2023-06-26T05:20:28;17.17;;;11.77;;
6173;SDS011;3120;48.796;9.796;2023-06-26T05:29:00;20.77;;;11.43;;
6173;SDS011;3120;48.796;9.796;2023-06-26T05:31:30;16.38;;;11.55;;
6173;SDS011;3120;48.796;9.796;2023-06-26T05:34:03;13.07;;;8.27;;
6173;SDS011;3120;48.796;9.796;2023-06-26T05:37:10;16.35;;;12.10;;
6173;SDS011;3120;48.796;9.796;2023-06-26T05:39:43;17.50;;;11.18;;
6173;SDS011;3120;48.796;9.796;2023-06-26T05:42:09;18.95;;;11.15;;
6173;SDS011;3120;48.796;9.796;2023-06-26T05:44:35;17.50;;;10.57;;
6173;SDS011;3120;48.796;9.796;2023-06-26T05:47:01;21.48;;;11.75;;
6173;SDS011;3120;48.796;9.796;2023-06-26T05:49:27;21.75;;;12.65;;
6173;SDS011;3120;48.796;9.796;2023-06-26T05:51:56;21.45;;;13.13;;
6173;SDS011;3120;48.796;9.796;2023-06-26T05:54:24;24.67;;;13.55;;
6173;SDS011;3120;48.796;9.796;2023-06-26T05:56:56;26.50;;;13.45;;
6173;SDS011;3120;48.796;9.796;2023-06-26T05:59:25;21.88;;;12.15;;
6173;SDS011;3120;48.796;9.796;2023-06-26T06:02:00;26.70;;;12.70;;
6173;SDS011;3120;48.796;9.796;2023-06-26T06:05:12;26.00;;;12.60;;
6173;SDS011;3120;48.796;9.796;2023-06-26T06:14:55;22.17;;;11.15;;
6173;SDS011;3120;48.796;9.796;2023-06-26T06:35:24;21.48;;;10.20;;
6173;SDS011;3120;48.796;9.796;2023-06-26T06:37:53;17.30;;;8.90;;
6173;SDS011;3120;48.796;9.796;2023-06-26T06:40:26;17.83;;;9.35;;
6173;SDS011;3120;48.796;9.796;2023-06-26T06:42:55;17.52;;;8.20;;
6173;SDS011;3120;48.796;9.796;2023-06-26T06:45:27;13.77;;;7.90;;
6173;SDS011;3120;48.796;9.796;2023-06-26T06:48:05;13.30;;;8.57;;
6173;SDS011;3120;48.796;9.796;2023-06-26T06:50:50;17.88;;;8.07;;
6173;SDS011;3120;48.796;9.796;2023-06-26T06:53:41;13.52;;;7.95;;
6173;SDS011;3120;48.796;9.796;2023-06-26T06:56:11;10.82;;;7.65;;
6173;SDS011;3120;48.796;9.796;2023-06-26T07:05:18;10.07;;;6.38;;
6173;SDS011;3120;48.796;9.796;2023-06-26T07:07:57;10.23;;;6.38;;
6173;SDS011;3120;48.796;9.796;2023-06-26T07:10:27;11.23;;;6.80;;
6173;SDS011;3120;48.796;9.796;2023-06-26T07:12:55;9.00;;;6.78;;
6173;SDS011;3120;48.796;9.796;2023-06-26T07:15:21;8.68;;;6.00;;
6173;SDS011;3120;48.796;9.796;2023-06-26T07:17:47;7.03;;;5.68;;
6173;SDS011;3120;48.796;9.796;2023-06-26T07:20:13;9.00;;;5.90;;
6173;SDS011;3120;48.796;9.796;2023-06-26T07:22:48;7.00;;;5.53;;
6173;SDS011;3120;48.796;9.796;2023-06-26T07:25:34;12.85;;;5.90;;
6173;SDS011;3120;48.796;9.796;2023-06-26T07:28:02;8.00;;;5.82;;
6173;SDS011;3120;48.796;9.796;2023-06-26T07:30:28;9.88;;;5.82;;
6173;SDS011;3120;48.796;9.796;2023-06-26T07:32:54;9.10;;;5.50;;
6173;SDS011;3120;48.796;9.796;2023-06-26T07:35:19;7.05;;;5.68;;
6173;SDS011;3120;48.796;9.796;2023-06-26T07:37:45;9.15;;;5.63;;
6173;SDS011;3120;48.796;9.796;2023-06-26T07:40:11;7.38;;;5.60;;
6173;SDS011;3120;48.796;9.796;2023-06-26T07:42:36;13.07;;;5.32;;
6173;SDS011;3120;48.796;9.796;2023-06-26T07:45:02;9.80;;;5.22;;
6173;SDS011;3120;48.796;9.796;2023-06-26T07:47:34;7.10;;;5.57;;
6173;SDS011;3120;48.796;9.796;2023-06-26T07:50:00;5.65;;;4.22;;
6173;SDS011;3120;48.796;9.796;2023-06-26T07:52:26;7.13;;;5.28;;
6173;SDS011;3120;48.796;9.796;2023-06-26T07:54:52;6.55;;;5.45;;
6173;SDS011;3120;48.796;9.796;2023-06-26T07:57:17;6.45;;;5.35;;
6173;SDS011;3120;48.796;9.796;2023-06-26T07:59:43;6.40;;;5.18;;
6173;SDS011;3120;48.796;9.796;2023-06-26T08:02:08;8.23;;;5.50;;
6173;SDS011;3120;48.796;9.796;2023-06-26T08:04:34;6.55;;;5.15;;
6173;SDS011;3120;48.796;9.796;2023-06-26T08:07:01;7.60;;;5.60;;
6173;SDS011;3120;48.796;9.796;2023-06-26T08:09:27;13.02;;;5.38;;
6173;SDS011;3120;48.796;9.796;2023-06-26T08:11:54;8.30;;;5.40;;
6173;SDS011;3120;48.796;9.796;2023-06-26T08:14:20;9.30;;;5.25;;
6173;SDS011;3120;48.796;9.796;2023-06-26T08:16:45;8.00;;;5.72;;
6173;SDS011;3120;48.796;9.796;2023-06-26T08:19:12;8.50;;;5.18;;
6173;SDS011;3120;48.796;9.796;2023-06-26T08:21:39;11.02;;;5.70;;
6173;SDS011;3120;48.796;9.796;2023-06-26T08:24:05;10.95;;;5.13;;
6173;SDS011;3120;48.796;9.796;2023-06-26T08:26:33;7.22;;;5.25;;
6173;SDS011;3120;48.796;9.796;2023-06-26T08:28:59;7.32;;;5.15;;
6173;SDS011;3120;48.796;9.796;2023-06-26T08:31:26;5.90;;;5.22;;
6173;SDS011;3120;48.796;9.796;2023-06-26T08:33:51;7.63;;;5.45;;
6173;SDS011;3120;48.796;9.796;2023-06-26T08:36:18;8.23;;;5.55;;
6173;SDS011;3120;48.796;9.796;2023-06-26T08:38:45;7.75;;;4.88;;
6173;SDS011;3120;48.796;9.796;2023-06-26T08:41:10;8.10;;;4.90;;
6173;SDS011;3120;48.796;9.796;2023-06-26T08:43:36;7.05;;;4.72;;
6173;SDS011;3120;48.796;9.796;2023-06-26T08:46:02;7.22;;;4.80;;
6173;SDS011;3120;48.796;9.796;2023-06-26T08:48:29;7.75;;;4.57;;
6173;SDS011;3120;48.796;9.796;2023-06-26T08:51:00;6.50;;;4.47;;
6173;SDS011;3120;48.796;9.796;2023-06-26T08:53:36;9.60;;;5.28;;
6173;SDS011;3120;48.796;9.796;2023-06-26T08:56:24;9.20;;;5.07;;
6173;SDS011;3120;48.796;9.796;2023-06-26T08:58:56;7.25;;;5.05;;
6173;SDS011;3120;48.796;9.796;2023-06-26T09:01:22;7.18;;;5.05;;
6173;SDS011;3120;48.796;9.796;2023-06-26T09:03:49;6.10;;;5.30;;
6173;SDS011;3120;48.796;9.796;2023-06-26T09:06:16;7.88;;;4.97;;
6173;SDS011;3120;48.796;9.796;2023-06-26T09:08:43;7.45;;;4.93;;
6173;SDS011;3120;48.796;9.796;2023-06-26T09:11:09;18.08;;;4.78;;
6173;SDS011;3120;48.796;9.796;2023-06-26T09:13:35;9.02;;;5.10;;
6173;SDS011;3120;48.796;9.796;2023-06-26T09:16:04;11.52;;;5.38;;
6173;SDS011;3120;48.796;9.796;2023-06-26T09:18:32;8.35;;;5.13;;
6173;SDS011;3120;48.796;9.796;2023-06-26T09:20:58;6.22;;;4.80;;
6173;SDS011;3120;48.796;9.796;2023-06-26T09:23:24;8.23;;;4.97;;
6173;SDS011;3120;48.796;9.796;2023-06-26T09:25:51;7.43;;;4.90;;
6173;SDS011;3120;48.796;9.796;2023-06-26T09:28:16;6.05;;;4.60;;
6173;SDS011;3120;48.796;9.796;2023-06-26T09:30:44;6.65;;;4.55;;
6173;SDS011;3120;48.796;9.796;2023-06-26T09:33:18;7.65;;;4.57;;
6173;SDS011;3120;48.796;9.796;2023-06-26T09:35:47;5.57;;;4.20;;
6173;SDS011;3120;48.796;9.796;2023-06-26T09:38:13;9.80;;;4.57;;
6173;SDS011;3120;48.796;9.796;2023-06-26T09:40:40;7.38;;;4.53;;
6173;SDS011;3120;48.796;9.796;2023-06-26T09:43:06;8.25;;;4.70;;
6173;SDS011;3120;48.796;9.796;2023-06-26T09:45:39;6.07;;;4.30;;
6173;SDS011;3120;48.796;9.796;2023-06-26T09:48:05;6.57;;;4.63;;
6173;SDS011;3120;48.796;9.796;2023-06-26T09:50:33;5.97;;;4.68;;
6173;SDS011;3120;48.796;9.796;2023-06-26T09:53:11;12.93;;;4.03;;
6173;SDS011;3120;48.796;9.796;2023-06-26T09:55:43;6.82;;;4.32;;
6173;SDS011;3120;48.796;9.796;2023-06-26T09:58:10;5.15;;;3.63;;
6173;SDS011;3120;48.796;9.796;2023-06-26T10:00:41;6.60;;;3.70;;
6173;SDS011;3120;48.796;9.796;2023-06-26T10:03:10;7.80;;;3.97;;
6173;SDS011;3120;48.796;9.796;2023-06-26T10:05:38;4.65;;;4.00;;
6173;SDS011;3120;48.796;9.796;2023-06-26T10:08:04;11.05;;;4.47;;
6173;SDS011;3120;48.796;9.796;2023-06-26T10:10:31;15.07;;;4.22;;
6173;SDS011;3120;48.796;9.796;2023-06-26T10:12:59;5.20;;;3.90;;
6173;SDS011;3120;48.796;9.796;2023-06-26T10:15:29;9.07;;;4.20;;
6173;SDS011;3120;48.796;9.796;2023-06-26T10:17:56;4.43;;;3.60;;
6173;SDS011;3120;48.796;9.796;2023-06-26T10:20:22;5.13;;;4.47;;
6173;SDS011;3120;48.796;9.796;2023-06-26T10:22:50;5.70;;;3.60;;
6173;SDS011;3120;48.796;9.796;2023-06-26T10:25:19;6.03;;;3.80;;
6173;SDS011;3120;48.796;9.796;2023-06-26T10:27:47;4.60;;;3.45;;
6173;SDS011;3120;48.796;9.796;2023-06-26T10:30:20;6.18;;;4.40;;
6173;SDS011;3120;48.796;9.796;2023-06-26T10:32:56;6.05;;;4.43;;
6173;SDS011;3120;48.796;9.796;2023-06-26T10:35:23;5.47;;;4.47;;
6173;SDS011;3120;48.796;9.796;2023-06-26T10:37:49;4.60;;;3.88;;
6173;SDS011;3120;48.796;9.796;2023-06-26T10:40:23;5.00;;;4.25;;
6173;SDS011;3120;48.796;9.796;2023-06-26T10:42:50;4.57;;;3.72;;
6173;SDS011;3120;48.796;9.796;2023-06-26T10:45:19;8.02;;;3.83;;
6173;SDS011;3120;48.796;9.796;2023-06-26T10:47:46;5.35;;;4.22;;
6173;SDS011;3120;48.796;9.796;2023-06-26T10:50:16;6.55;;;3.70;;
6173;SDS011;3120;48.796;9.796;2023-06-26T10:52:43;5.05;;;4.10;;
6173;SDS011;3120;48.796;9.796;2023-06-26T10:55:09;7.18;;;5.03;;
6173;SDS011;3120;48.796;9.796;2023-06-26T10:57:39;9.85;;;4.47;;
6173;SDS011;3120;48.796;9.796;2023-06-26T11:00:08;5.38;;;4.50;;
6173;SDS011;3120;48.796;9.796;2023-06-26T11:02:48;11.68;;;4.35;;
6173;SDS011;3120;48.796;9.796;2023-06-26T11:10:50;10.95;;;5.03;;
6173;SDS011;3120;48.796;9.796;2023-06-26T11:13:18;6.85;;;4.03;;
6173;SDS011;3120;48.796;9.796;2023-06-26T11:15:45;10.75;;;4.80;;
6173;SDS011;3120;48.796;9.796;2023-06-26T11:18:15;7.53;;;4.03;;
6173;SDS011;3120;48.796;9.796;2023-06-26T11:20:41;6.50;;;4.50;;
6173;SDS011;3120;48.796;9.796;2023-06-26T11:23:10;3.95;;;3.63;;
6173;SDS011;3120;48.796;9.796;2023-06-26T11:25:37;5.97;;;4.50;;
6173;SDS011;3120;48.796;9.796;2023-06-26T11:28:03;9.82;;;3.80;;
6173;SDS011;3120;48.796;9.796;2023-06-26T11:30:30;5.90;;;3.75;;
6173;SDS011;3120;48.796;9.796;2023-06-26T11:33:08;4.43;;;3.33;;
6173;SDS011;3120;48.796;9.796;2023-06-26T11:35:35;10.40;;;3.78;;
6173;SDS011;3120;48.796;9.796;2023-06-26T11:40:35;8.82;;;4.25;;
6173;SDS011;3120;48.796;9.796;2023-06-26T11:43:02;8.63;;;3.97;;
6173;SDS011;3120;48.796;9.796;2023-06-26T11:45:31;12.60;;;3.97;;
6173;SDS011;3120;48.796;9.796;2023-06-26T11:48:00;14.27;;;4.38;;
6173;SDS011;3120;48.796;9.796;2023-06-26T11:50:26;8.25;;;4.68;;
6173;SDS011;3120;48.796;9.796;2023-06-26T11:52:56;8.00;;;3.95;;
6173;SDS011;3120;48.796;9.796;2023-06-26T11:55:23;7.07;;;3.83;;
6173;SDS011;3120;48.796;9.796;2023-06-26T11:57:52;6.35;;;4.40;;
6173;SDS011;3120;48.796;9.796;2023-06-26T12:00:20;4.78;;;3.97;;
6173;SDS011;3120;48.796;9.796;2023-06-26T12:02:47;6.93;;;4.90;;
6173;SDS011;3120;48.796;9.796;2023-06-26T12:05:13;8.48;;;4.75;;
6173;SDS011;3120;48.796;9.796;2023-06-26T12:07:43;6.47;;;4.50;;
6173;SDS011;3120;48.796;9.796;2023-06-26T12:10:11;9.88;;;4.55;;
6173;SDS011;3120;48.796;9.796;2023-06-26T12:12:37;7.80;;;4.50;;
6173;SDS011;3120;48.796;9.796;2023-06-26T12:15:04;16.55;;;5.28;;
6173;SDS011;3120;48.796;9.796;2023-06-26T12:17:31;5.13;;;4.32;;
6173;SDS011;3120;48.796;9.796;2023-06-26T12:19:57;6.95;;;4.68;;
6173;SDS011;3120;48.796;9.796;2023-06-26T12:22:22;6.18;;;4.28;;
6173;SDS011;3120;48.796;9.796;2023-06-26T12:24:48;6.43;;;4.88;;
6173;SDS011;3120;48.796;9.796;2023-06-26T12:27:15;5.72;;;4.88;;
6173;SDS011;3120;48.796;9.796;2023-06-26T12:29:48;8.77;;;4.90;;
6173;SDS011;3120;48.796;9.796;2023-06-26T12:32:18;11.25;;;3.72;;
6173;SDS011;3120;48.796;9.796;2023-06-26T12:34:46;7.13;;;4.57;;
6173;SDS011;3120;48.796;9.796;2023-06-26T12:37:15;8.43;;;5.00;;
6173;SDS011;3120;48.796;9.796;2023-06-26T12:39:50;8.48;;;4.00;;
6173;SDS011;3120;48.796;9.796;2023-06-26T12:42:26;10.15;;;4.55;;
6173;SDS011;3120;48.796;9.796;2023-06-26T12:44:53;10.77;;;5.37;;
6173;SDS011;3120;48.796;9.796;2023-06-26T12:47:26;8.65;;;5.03;;
6173;SDS011;3120;48.796;9.796;2023-06-26T12:49:56;14.95;;;4.88;;
6173;SDS011;3120;48.796;9.796;2023-06-26T12:52:22;8.35;;;4.97;;
6173;SDS011;3120;48.796;9.796;2023-06-26T12:54:52;11.18;;;5.07;;
6173;SDS011;3120;48.796;9.796;2023-06-26T12:57:18;14.85;;;5.70;;
6173;SDS011;3120;48.796;9.796;2023-06-26T12:59:45;12.48;;;4.78;;
6173;SDS011;3120;48.796;9.796;2023-06-26T13:02:11;12.48;;;5.30;;
6173;SDS011;3120;48.796;9.796;2023-06-26T13:04:37;9.68;;;4.90;;
6173;SDS011;3120;48.796;9.796;2023-06-26T13:07:06;6.28;;;4.22;;
6173;SDS011;3120;48.796;9.796;2023-06-26T13:09:33;19.10;;;5.10;;
6173;SDS011;3120;48.796;9.796;2023-06-26T13:11:59;8.35;;;3.95;;
6173;SDS011;3120;48.796;9.796;2023-06-26T13:14:25;6.90;;;4.15;;
6173;SDS011;3120;48.796;9.796;2023-06-26T13:16:51;9.43;;;4.88;;
6173;SDS011;3120;48.796;9.796;2023-06-26T13:19:16;10.55;;;4.93;;
6173;SDS011;3120;48.796;9.796;2023-06-26T13:21:42;15.05;;;5.30;;
6173;SDS011;3120;48.796;9.796;2023-06-26T13:24:08;8.27;;;5.00;;
6173;SDS011;3120;48.796;9.796;2023-06-26T13:26:35;5.47;;;3.58;;
6173;SDS011;3120;48.796;9.796;2023-06-26T13:52:19;8.75;;;4.93;;
6173;SDS011;3120;48.796;9.796;2023-06-26T13:54:44;6.13;;;4.70;;
6173;SDS011;3120;48.796;9.796;2023-06-26T13:57:10;8.48;;;4.88;;
6173;SDS011;3120;48.796;9.796;2023-06-26T13:59:37;10.43;;;5.22;;
6173;SDS011;3120;48.796;9.796;2023-06-26T14:02:07;8.65;;;4.85;;
6173;SDS011;3120;48.796;9.796;2023-06-26T14:04:33;6.63;;;4.80;;
6173;SDS011;3120;48.796;9.796;2023-06-26T14:06:59;10.25;;;5.75;;
6173;SDS011;3120;48.796;9.796;2023-06-26T14:09:24;9.35;;;4.95;;
6173;SDS011;3120;48.796;9.796;2023-06-26T14:11:50;11.05;;;5.80;;
6173;SDS011;3120;48.796;9.796;2023-06-26T14:14:16;8.43;;;4.80;;
6173;SDS011;3120;48.796;9.796;2023-06-26T14:16:41;10.70;;;4.68;;
6173;SDS011;3120;48.796;9.796;2023-06-26T14:19:07;8.73;;;4.57;;
6173;SDS011;3120;48.796;9.796;2023-06-26T14:21:40;13.15;;;4.68;;
6173;SDS011;3120;48.796;9.796;2023-06-26T14:24:06;6.82;;;4.32;;
6173;SDS011;3120;48.796;9.796;2023-06-26T14:26:32;6.65;;;4.47;;
6173;SDS011;3120;48.796;9.796;2023-06-26T14:28:58;5.78;;;4.43;;
6173;SDS011;3120;48.796;9.796;2023-06-26T14:31:27;14.35;;;4.90;;
6173;SDS011;3120;48.796;9.796;2023-06-26T14:33:52;7.55;;;3.80;;
6173;SDS011;3120;48.796;9.796;2023-06-26T14:36:18;5.57;;;4.15;;
6173;SDS011;3120;48.796;9.796;2023-06-26T14:38:44;8.93;;;4.53;;
6173;SDS011;3120;48.796;9.796;2023-06-26T14:41:16;8.57;;;4.82;;
6173;SDS011;3120;48.796;9.796;2023-06-26T14:43:42;6.93;;;4.40;;
6173;SDS011;3120;48.796;9.796;2023-06-26T14:46:07;5.15;;;3.95;;
6173;SDS011;3120;48.796;9.796;2023-06-26T14:48:33;9.38;;;3.88;;
6173;SDS011;3120;48.796;9.796;2023-06-26T14:50:58;6.50;;;4.13;;
6173;SDS011;3120;48.796;9.796;2023-06-26T14:53:26;7.35;;;4.07;;
6173;SDS011;3120;48.796;9.796;2023-06-26T14:59:13;6.22;;;2.72;;
6173;SDS011;3120;48.796;9.796;2023-06-26T15:04:45;8.82;;;3.72;;
6173;SDS011;3120;48.796;9.796;2023-06-26T15:07:11;7.13;;;3.60;;
6173;SDS011;3120;48.796;9.796;2023-06-26T15:09:37;5.20;;;3.75;;
6173;SDS011;3120;48.796;9.796;2023-06-26T15:12:03;6.80;;;3.47;;
6173;SDS011;3120;48.796;9.796;2023-06-26T15:14:29;5.80;;;3.10;;
6173;SDS011;3120;48.796;9.796;2023-06-26T15:16:55;4.63;;;2.78;;
6173;SDS011;3120;48.796;9.796;2023-06-26T15:19:21;8.35;;;3.08;;
6173;SDS011;3120;48.796;9.796;2023-06-26T15:21:46;6.80;;;2.53;;
6173;SDS011;3120;48.796;9.796;2023-06-26T15:24:12;5.00;;;2.75;;
6173;SDS011;3120;48.796;9.796;2023-06-26T15:26:37;8.05;;;2.95;;
6173;SDS011;3120;48.796;9.796;2023-06-26T15:29:11;6.25;;;2.58;;
6173;SDS011;3120;48.796;9.796;2023-06-26T15:31:39;6.15;;;2.58;;
6173;SDS011;3120;48.796;9.796;2023-06-26T15:34:05;7.32;;;3.00;;
6173;SDS011;3120;48.796;9.796;2023-06-26T15:36:31;4.13;;;1.77;;
6173;SDS011;3120;48.796;9.796;2023-06-26T15:38:57;6.90;;;2.53;;
6173;SDS011;3120;48.796;9.796;2023-06-26T15:41:26;13.52;;;2.50;;
6173;SDS011;3120;48.796;9.796;2023-06-26T15:43:52;5.45;;;2.20;;
6173;SDS011;3120;48.796;9.796;2023-06-26T15:46:17;4.32;;;2.75;;
6173;SDS011;3120;48.796;9.796;2023-06-26T15:48:45;10.27;;;2.65;;
6173;SDS011;3120;48.796;9.796;2023-06-26T15:51:22;6.45;;;2.58;;
6173;SDS011;3120;48.796;9.796;2023-06-26T15:53:48;3.28;;;2.17;;
6173;SDS011;3120;48.796;9.796;2023-06-26T15:56:14;6.82;;;2.60;;
6173;SDS011;3120;48.796;9.796;2023-06-26T15:58:39;5.40;;;2.33;;
6173;SDS011;3120;48.796;9.796;2023-06-26T16:01:10;3.40;;;1.95;;
6173;SDS011;3120;48.796;9.796;2023-06-26T16:03:39;4.45;;;2.60;;
6173;SDS011;3120;48.796;9.796;2023-06-26T16:06:05;6.88;;;2.60;;
6173;SDS011;3120;48.796;9.796;2023-06-26T16:08:34;4.78;;;2.10;;
6173;SDS011;3120;48.796;9.796;2023-06-26T16:11:00;4.53;;;2.03;;
6173;SDS011;3120;48.796;9.796;2023-06-26T16:13:27;3.47;;;1.70;;
6173;SDS011;3120;48.796;9.796;2023-06-26T16:15:52;4.57;;;1.90;;
6173;SDS011;3120;48.796;9.796;2023-06-26T16:18:18;8.77;;;2.80;;
6173;SDS011;3120;48.796;9.796;2023-06-26T16:20:44;11.25;;;2.78;;
6173;SDS011;3120;48.796;9.796;2023-06-26T16:23:12;8.80;;;2.78;;
6173;SDS011;3120;48.796;9.796;2023-06-26T16:25:37;7.68;;;3.10;;
6173;SDS011;3120;48.796;9.796;2023-06-26T16:28:03;5.32;;;3.10;;
6173;SDS011;3120;48.796;9.796;2023-06-26T16:30:29;11.38;;;3.50;;
6173;SDS011;3120;48.796;9.796;2023-06-26T16:32:55;7.88;;;3.67;;
6173;SDS011;3120;48.796;9.796;2023-06-26T16:35:23;6.85;;;3.50;;
6173;SDS011;3120;48.796;9.796;2023-06-26T16:37:52;9.13;;;3.65;;
6173;SDS011;3120;48.796;9.796;2023-06-26T16:40:17;7.95;;;3.45;;
6173;SDS011;3120;48.796;9.796;2023-06-26T16:42:43;11.27;;;4.40;;
6173;SDS011;3120;48.796;9.796;2023-06-26T16:45:09;9.52;;;4.03;;
6173;SDS011;3120;48.796;9.796;2023-06-26T16:47:34;12.07;;;4.47;;
6173;SDS011;3120;48.796;9.796;2023-06-26T16:50:05;14.75;;;4.28;;
6173;SDS011;3120;48.796;9.796;2023-06-26T16:52:31;12.02;;;4.50;;
6173;SDS011;3120;48.796;9.796;2023-06-26T16:54:57;12.68;;;4.75;;
6173;SDS011;3120;48.796;9.796;2023-06-26T16:57:22;11.10;;;4.68;;
6173;SDS011;3120;48.796;9.796;2023-06-26T16:59:48;7.40;;;4.90;;
6173;SDS011;3120;48.796;9.796;2023-06-26T17:02:13;14.70;;;5.20;;
6173;SDS011;3120;48.796;9.796;2023-06-26T17:04:39;11.30;;;4.75;;
6173;SDS011;3120;48.796;9.796;2023-06-26T17:07:04;6.18;;;4.50;;
6173;SDS011;3120;48.796;9.796;2023-06-26T17:09:31;7.97;;;5.20;;
6173;SDS011;3120;48.796;9.796;2023-06-26T17:11:59;7.07;;;4.60;;
6173;SDS011;3120;48.796;9.796;2023-06-26T17:14:24;9.93;;;4.90;;
6173;SDS011;3120;48.796;9.796;2023-06-26T17:16:51;9.82;;;5.40;;
6173;SDS011;3120;48.796;9.796;2023-06-26T17:19:16;11.90;;;4.10;;
6173;SDS011;3120;48.796;9.796;2023-06-26T17:21:42;15.27;;;4.95;;
6173;SDS011;3120;48.796;9.796;2023-06-26T17:24:12;7.70;;;4.55;;
6173;SDS011;3120;48.796;9.796;2023-06-26T17:26:43;8.68;;;4.13;;
6173;SDS011;3120;48.796;9.796;2023-06-26T17:29:14;9.25;;;4.97;;
6173;SDS011;3120;48.796;9.796;2023-06-26T17:31:52;11.23;;;4.15;;
6173;SDS011;3120;48.796;9.796;2023-06-26T17:34:17;5.03;;;3.03;;
6173;SDS011;3120;48.796;9.796;2023-06-26T17:36:43;7.78;;;3.97;;
6173;SDS011;3120;48.796;9.796;2023-06-26T17:39:10;13.75;;;4.15;;